CYYD

Smithers Airport

Smithers, , Canada
METAR CYYD 241100Z AUTO VRB03KT 9SM BKN055 BKN071 06/05 A3011 RMK SLP208
Observed Flight Rules
Sep-24 @ 11:00 UTC (32 minutes ago) Visual Flight Rules
Wind Visibility Clouds
Variable at 3 knots 9 miles
  • Broken at 5,500' AGL
  • Broken at 7,100' AGL
Temperatures Readings
Current 6°C / 43°F
Dewpoint 5°C / 41°F
Humidity 93%
Altimeter 30.11" Hg
Pressure 1020.8 hPa
Elevation 523
METAR CYYD 241100Z AUTO VRB03KT 9SM BKN055 BKN071 06/05 A3011 RMK SLP208
Observed Flight Rules
Sep-24 @ 11:00 UTC
(32 minutes ago)
VFR
Wind Visibility
Variable at 3 knots 9 miles
Clouds
  • Broken at 5,500' AGL
  • Broken at 7,100' AGL
Temperature Dewpoint
6°C / 43°F 5°C / 41°F
Humidity Altimeter Pressure
93% 30.11" Hg 1020.8 hPa